Time;durP1;ratioP1;P1;durP2;ratioP2;P2;SDS_P1;SDS_P2;PMS_P1;PMS_P2;Temp;Humidity;BMP_temperature;BMP_pressure;BME280_temperature;BME280_humidity;BME280_pressure;Samples;Min_cycle;Max_cycle;Signal;HPM_P1;HPM_P2
2023/04/20 00:00:49;;;;;;;4.57;3.43;;;;;;;;;;4958056;29;20501;-82
2023/04/20 00:03:19;;;;;;;5.27;3.07;;;;;;;;;;4958131;29;20458;-84
2023/04/20 00:05:48;;;;;;;4.50;3.37;;;;;;;;;;4956825;29;20487;-82
2023/04/20 00:08:16;;;;;;;6.43;3.43;;;;;;;;;;4957982;29;20484;-83
2023/04/20 00:10:44;;;;;;;4.93;3.30;;;;;;;;;;4957908;29;20455;-81
2023/04/20 00:13:12;;;;;;;6.43;3.37;;;;;;;;;;4957922;29;20455;-82
2023/04/20 00:15:39;;;;;;;5.20;3.23;;;;;;;;;;4957727;29;20459;-81
2023/04/20 00:18:06;;;;;;;5.03;3.77;;;;;;;;;;4957593;29;20852;-82
2023/04/20 00:20:34;;;;;;;5.43;3.40;;;;;;;;;;4956306;29;20498;-82
2023/04/20 00:23:01;;;;;;;5.60;3.80;;;;;;;;;;4957741;29;20458;-81
2023/04/20 00:25:29;;;;;;;7.53;4.00;;;;;;;;;;4957684;29;20447;-81
2023/04/20 00:27:58;;;;;;;5.77;3.70;;;;;;;;;;4957698;29;20455;-82
2023/04/20 00:30:25;;;;;;;6.30;4.00;;;;;;;;;;4957528;29;20454;-82
2023/04/20 00:32:52;;;;;;;6.00;4.00;;;;;;;;;;4957459;29;20459;-81
2023/04/20 00:35:19;;;;;;;10.80;4.60;;;;;;;;;;4956369;29;20459;-82
2023/04/20 00:37:46;;;;;;;6.37;3.80;;;;;;;;;;4957441;29;20498;-81
2023/04/20 00:40:13;;;;;;;3.97;3.10;;;;;;;;;;4957319;29;20487;-82
2023/04/20 00:42:41;;;;;;;4.93;3.30;;;;;;;;;;4957240;29;20889;-81
2023/04/20 00:45:10;;;;;;;5.23;3.20;;;;;;;;;;4957314;29;20451;-81
2023/04/20 00:47:38;;;;;;;4.40;2.80;;;;;;;;;;4957316;29;20459;-82
2023/04/20 00:50:05;;;;;;;8.00;4.37;;;;;;;;;;4954860;29;20458;-81
2023/04/20 00:52:32;;;;;;;5.83;3.60;;;2.30;99.90;;;;;;4957161;29;20458;-84
2023/04/20 00:55:00;;;;;;;12.13;4.43;;;;;;;;;;4957013;29;20510;-85
2023/04/20 00:57:28;;;;;;;5.03;3.60;;;2.30;99.90;;;;;;4957011;29;20458;-82
2023/04/20 00:59:55;;;;;;;6.73;3.83;;;;;;;;;;4957017;29;20505;-85
2023/04/20 01:02:23;;;;;;;7.93;5.40;;;;;;;;;;4957001;29;20454;-85
2023/04/20 01:04:50;;;;;;;5.83;3.70;;;;;;;;;;4955984;28;20447;-81
2023/04/20 01:07:17;;;;;;;5.57;3.27;;;;;;;;;;4955784;29;20838;-81
2023/04/20 01:09:44;;;;;;;4.10;2.97;;;;;;;;;;4956950;29;20447;-81
2023/04/20 01:12:11;;;;;;;3.30;3.00;;;;;;;;;;4956800;29;20459;-82
2023/04/20 01:14:38;;;;;;;3.67;3.27;;;;;;;;;;4956850;29;20451;-83
2023/04/20 01:17:05;;;;;;;6.83;3.90;;;;;;;;;;4956739;29;20480;-85
2023/04/20 01:19:34;;;;;;;5.27;3.23;;;2.20;99.90;;;;;;4956634;29;20467;-84
2023/04/20 01:22:01;;;;;;;10.33;3.53;;;;;;;;;;4955511;29;20542;-84
2023/04/20 01:24:29;;;;;;;4.30;3.10;;;2.10;99.90;;;;;;4956614;29;20455;-82
2023/04/20 01:26:56;;;;;;;5.33;3.80;;;;;;;;;;4956529;29;20463;-81
2023/04/20 01:29:23;;;;;;;4.70;3.33;;;;;;;;;;4956525;28;20466;-81
2023/04/20 01:31:50;;;;;;;5.40;3.57;;;;;;;;;;4956682;29;20455;-81
2023/04/20 01:34:17;;;;;;;4.60;3.30;;;;;;;;;;4956420;29;20956;-81
2023/04/20 01:36:44;;;;;;;4.27;2.97;;;;;;;;;;4955207;29;20451;-81
2023/04/20 01:39:12;;;;;;;3.20;2.77;;;2.00;99.90;;;;;;4956257;28;20459;-82
2023/04/20 01:41:40;;;;;;;4.33;3.60;;;1.90;99.90;;;;;;4956297;29;20498;-84
2023/04/20 01:44:07;;;;;;;4.37;3.23;;;;;;;;;;4956441;29;20454;-82
2023/04/20 01:46:37;;;;;;;4.37;3.57;;;;;;;;;;4956152;29;20454;-85
2023/04/20 01:49:04;;;;;;;5.20;3.20;;;;;;;;;;4956319;29;20451;-82
2023/04/20 01:51:32;;;;;;;3.97;3.17;;;;;;;;;;4954900;29;20492;-85
2023/04/20 01:53:59;;;;;;;4.87;3.90;;;;;;;;;;4956184;29;20454;-82
2023/04/20 01:56:26;;;;;;;3.30;3.00;;;;;;;;;;4955993;29;20961;-82
2023/04/20 01:58:54;;;;;;;4.63;3.63;;;;;;;;;;4955963;29;20792;-86
2023/04/20 02:01:22;;;;;;;4.10;3.13;;;;;;;;;;4955898;29;20501;-81
2023/04/20 02:03:49;;;;;;;4.87;3.40;;;;;;;;;;4954484;29;20463;-81
2023/04/20 02:06:16;;;;;;;4.53;3.70;;;;;;;;;;4954667;29;20458;-81
2023/04/20 02:08:43;;;;;;;4.43;3.30;;;;;;;;;;4955788;29;20466;-83
2023/04/20 02:11:10;;;;;;;4.67;3.27;;;;;;;;;;4955546;29;20473;-81
2023/04/20 02:13:37;;;;;;;3.77;3.00;;;;;;;;;;4955834;29;20447;-82
2023/04/20 02:16:06;;;;;;;4.67;3.13;;;;;;;;;;4952587;28;20513;-82
2023/04/20 02:18:33;;;;;;;9.00;6.63;;;;;;;;;;4955473;29;20488;-81
2023/04/20 02:21:01;;;;;;;4.23;3.17;;;;;;;;;;4954113;29;20490;-82
2023/04/20 02:23:28;;;;;;;4.00;3.23;;;;;;;;;;4951902;29;20451;-82
2023/04/20 02:25:55;;;;;;;4.43;3.57;;;;;;;;;;4955458;29;20938;-80
2023/04/20 02:28:22;;;;;;;4.03;3.63;;;;;;;;;;4955318;29;20829;-85
2023/04/20 02:30:49;;;;;;;4.30;3.40;;;;;;;;;;4955699;29;20461;-81
2023/04/20 02:33:19;;;;;;;3.40;3.10;;;;;;;;;;4955659;29;20458;-82
2023/04/20 02:35:47;;;;;;;3.53;2.83;;;;;;;;;;4952466;29;20459;-81
2023/04/20 02:38:14;;;;;;;3.27;2.97;;;;;;;;;;4955298;29;20474;-80
2023/04/20 02:40:41;;;;;;;7.90;3.27;;;;;;;;;;4955220;29;20912;-81
2023/04/20 02:43:08;;;;;;;4.03;3.27;;;;;;;;;;4955256;29;20927;-82
2023/04/20 02:45:35;;;;;;;4.87;3.57;;;;;;;;;;4955195;29;20455;-80
2023/04/20 02:48:02;;;;;;;4.73;3.30;;;;;;;;;;4955106;29;20807;-81
2023/04/20 02:50:31;;;;;;;3.40;3.10;;;1.00;99.90;;;;;;4953831;29;20455;-84
2023/04/20 02:52:58;;;;;;;5.70;3.40;;;;;;;;;;4954770;29;20447;-82
2023/04/20 02:55:26;;;;;;;4.70;3.10;;;;;;;;;;4955299;29;20458;-81
2023/04/20 02:57:53;;;;;;;2.83;2.47;;;;;;;;;;4954970;29;20462;-83
2023/04/20 03:00:20;;;;;;;4.60;4.20;;;;;;;;;;4951483;29;20483;-85
2023/04/20 03:02:47;;;;;;;5.57;4.97;;;;;;;;;;4955073;29;20459;-82
2023/04/20 03:05:15;;;;;;;4.07;3.67;;;;;;;;;;4953988;29;20459;-82
2023/04/20 03:07:43;;;;;;;3.27;2.80;;;;;;;;;;4955226;29;20455;-83
2023/04/20 03:10:11;;;;;;;3.60;2.87;;;;;;;;;;4953042;29;20447;-85
2023/04/20 03:12:38;;;;;;;6.73;6.03;;;;;;;;;;4955109;29;20466;-85
2023/04/20 03:15:06;;;;;;;7.50;5.57;;;;;;;;;;4954894;29;20456;-82
2023/04/20 03:17:33;;;;;;;5.80;3.70;;;;;;;;;;4954966;29;20487;-85
2023/04/20 03:20:00;;;;;;;7.13;3.83;;;;;;;;;;4954649;29;20828;-81
2023/04/20 03:22:27;;;;;;;4.43;3.00;;;;;;;;;;4954665;29;20494;-82
2023/04/20 03:24:56;;;;;;;4.33;3.70;;;;;;;;;;4964238;29;20958;-81
2023/04/20 03:27:23;;;;;;;7.03;3.90;;;;;;;;;;4969308;28;20419;-82
2023/04/20 03:29:50;;;;;;;7.80;3.10;;;;;;;;;;4958711;29;20450;-82
2023/04/20 03:32:17;;;;;;;4.07;3.30;;;;;;;;;;4958775;29;20462;-84
2023/04/20 03:34:44;;;;;;;5.80;3.30;;;;;;;;;;4958743;29;20451;-84
2023/04/20 03:37:11;;;;;;;10.43;3.43;;;;;;;;;;4957646;29;20450;-82
2023/04/20 03:39:38;;;;;;;8.17;7.37;;;;;;;;;;4958808;29;20447;-85
2023/04/20 03:42:06;;;;;;;4.23;3.47;;;0.70;99.90;;;;;;4958732;29;21113;-84
2023/04/20 03:44:33;;;;;;;3.50;3.20;;;;;;;;;;4958570;29;21065;-86
2023/04/20 03:47:00;;;;;;;3.73;3.20;;;;;;;;;;4958628;29;20451;-85
2023/04/20 03:49:27;;;;;;;6.63;3.20;;;;;;;;;;4958516;29;20455;-84
2023/04/20 03:51:54;;;;;;;5.40;3.87;;;;;;;;;;4957308;29;20979;-82
2023/04/20 03:54:21;;;;;;;6.83;3.80;;;;;;;;;;4958444;29;20451;-84
2023/04/20 03:56:49;;;;;;;6.80;4.50;;;;;;;;;;4958483;29;20459;-85
2023/04/20 03:59:17;;;;;;;3.90;3.50;;;;;;;;;;4958489;29;20465;-86
2023/04/20 04:01:45;;;;;;;8.60;6.80;;;;;;;;;;4958288;29;20502;-84
2023/04/20 04:04:12;;;;;;;4.17;3.77;;;;;;;;;;4958448;29;20526;-85
2023/04/20 04:06:39;;;;;;;9.17;4.07;;;;;;;;;;4957183;29;20458;-85
2023/04/20 04:09:06;;;;;;;4.63;3.57;;;;;;;;;;4958084;29;20458;-85
2023/04/20 04:11:33;;;;;;;16.37;10.30;;;;;;;;;;4958219;29;20450;-84
2023/04/20 04:14:03;;;;;;;11.13;7.60;;;;;;;;;;4958008;29;20812;-82
2023/04/20 04:16:32;;;;;;;12.50;8.50;;;;;;;;;;4958010;29;20891;-85
2023/04/20 04:18:59;;;;;;;9.80;7.60;;;;;;;;;;4958143;29;20470;-87
2023/04/20 04:21:27;;;;;;;8.20;5.20;;;;;;;;;;4956923;29;20509;-86
2023/04/20 04:23:54;;;;;;;14.10;4.50;;;;;;;;;;4958119;29;20470;-85
2023/04/20 04:26:23;;;;;;;5.90;4.60;;;;;;;;;;4957820;29;20461;-86
2023/04/20 04:28:50;;;;;;;4.90;3.83;;;;;;;;;;4958027;28;20455;-83
2023/04/20 04:31:18;;;;;;;8.47;5.13;;;;;;;;;;4957671;29;20505;-87
2023/04/20 04:33:46;;;;;;;4.80;4.30;;;;;;;;;;4957655;29;20957;-87
2023/04/20 04:36:14;;;;;;;6.93;4.50;;;;;;;;;;4956488;29;20455;-86
2023/04/20 04:38:43;;;;;;;6.63;4.70;;;;;;;;;;4957500;28;20864;-82
2023/04/20 04:41:10;;;;;;;25.43;20.97;;;;;;;;;;4957718;29;20490;-83
2023/04/20 04:43:38;;;;;;;6.23;4.33;;;;;;;;;;4957565;29;20870;-85
2023/04/20 04:46:09;;;;;;;5.67;4.33;;;;;;;;;;4957475;29;20451;-82
2023/04/20 04:48:37;;;;;;;6.87;4.70;;;;;;;;;;4957300;29;20855;-81
2023/04/20 04:51:05;;;;;;;8.70;5.53;;;;;;;;;;4956290;28;20459;-81
2023/04/20 04:53:32;;;;;;;9.33;5.47;;;;;;;;;;4957375;29;20459;-81
2023/04/20 04:55:59;;;;;;;14.80;5.93;;;;;;;;;;4957170;29;20943;-81
2023/04/20 04:58:27;;;;;;;8.27;5.33;;;;;;;;;;4957239;29;20455;-83
2023/04/20 05:00:54;;;;;;;7.43;5.77;;;;;;;;;;4957350;29;20943;-83
2023/04/20 05:03:21;;;;;;;8.23;5.80;;;;;;;;;;4957273;29;20455;-82
2023/04/20 05:05:48;;;;;;;7.33;5.50;;;;;;;;;;4955975;29;20553;-82
2023/04/20 05:08:16;;;;;;;6.77;5.23;;;1.00;99.90;;;;;;4956924;29;20467;-82
2023/04/20 05:10:43;;;;;;;6.30;5.13;;;;;;;;;;4957049;29;20462;-84
2023/04/20 05:13:10;;;;;;;4.90;4.23;;;;;;;;;;4957212;29;20455;-84
2023/04/20 05:15:37;;;;;;;5.63;4.23;;;;;;;;;;4956865;29;20444;-81
2023/04/20 05:18:04;;;;;;;6.30;4.77;;;;;;;;;;4957000;29;20490;-82
2023/04/20 05:20:31;;;;;;;7.80;5.27;;;;;;;;;;4955746;29;20451;-82
2023/04/20 05:22:59;;;;;;;7.57;5.70;;;;;;;;;;4956639;29;20868;-83
2023/04/20 05:25:27;;;;;;;10.60;5.97;;;1.70;99.90;;;;;;4956823;29;20478;-85
2023/04/20 05:27:54;;;;;;;5.67;4.50;;;;;;;;;;4953030;29;20852;-82
2023/04/20 05:30:22;;;;;;;9.10;5.70;;;2.00;99.90;;;;;;4956753;29;20451;-82
2023/04/20 05:32:49;;;;;;;7.23;5.93;;;;;;;;;;4956334;29;20462;-82
2023/04/20 05:35:16;;;;;;;12.77;6.40;;;;;;;;;;4954748;29;20455;-81
2023/04/20 05:37:43;;;;;;;9.73;6.63;;;;;;;;;;4956209;29;20463;-82
2023/04/20 05:40:11;;;;;;;8.27;6.13;;;;;;;;;;4955281;29;20451;-81
2023/04/20 05:42:39;;;;;;;11.70;6.90;;;4.10;99.90;;;;;;4956521;28;20527;-83
2023/04/20 05:45:07;;;;;;;6.90;5.70;;;;;;;;;;4957252;29;20456;-84
2023/04/20 05:47:34;;;;;;;6.83;5.70;;;;;;;;;;4956316;29;20816;-84
2023/04/20 05:50:01;;;;;;;5.30;4.80;;;;;;;;;;4955821;28;20458;-83
2023/04/20 05:52:28;;;;;;;6.33;4.20;;;;;;;;;;4956416;29;20462;-84
2023/04/20 05:54:55;;;;;;;6.23;5.40;;;;;;;;;;4956365;29;20455;-82
2023/04/20 05:57:23;;;;;;;8.67;5.17;;;;;;;;;;4957478;29;20444;-80
2023/04/20 05:59:51;;;;;;;6.70;5.30;;;;;;;;;;4957025;29;20444;-81
2023/04/20 06:02:18;;;;;;;6.23;4.87;;;;;;;;;;4937129;29;20496;-81
2023/04/20 06:04:45;;;;;;;8.03;6.60;;;;;;;;;;4937070;29;20540;-81
2023/04/20 06:07:13;;;;;;;6.90;4.77;;;;;;;;;;4935981;29;20444;-82
2023/04/20 06:09:40;;;;;;;7.33;5.30;;;;;;;;;;4936732;29;20448;-83
2023/04/20 06:12:08;;;;;;;6.40;5.40;;;;;;;;;;4937007;29;20487;-84
2023/04/20 06:14:35;;;;;;;5.50;5.00;;;;;;;;;;4936689;29;20748;-83
2023/04/20 06:17:03;;;;;;;5.20;4.67;;;7.60;99.90;;;;;;4937188;29;20834;-84
2023/04/20 06:19:30;;;;;;;5.00;4.30;;;;;;;;;;4936840;29;20472;-83
2023/04/20 06:21:58;;;;;;;6.70;5.13;;;;;;;;;;4935708;29;20491;-83
2023/04/20 06:24:26;;;;;;;5.50;4.43;;;;;;;;;;4936869;29;20830;-82
2023/04/20 06:26:53;;;;;;;5.47;4.97;;;;;;;;;;4936778;29;20471;-83
2023/04/20 06:29:20;;;;;;;5.10;4.60;;;;;;;;;;4936650;29;20463;-84
2023/04/20 06:31:47;;;;;;;6.97;5.47;;;;;;;;;;4936327;29;20459;-83
2023/04/20 06:34:16;;;;;;;6.43;4.97;;;8.60;96.40;;;;;;4936446;29;20459;-83
2023/04/20 06:36:43;;;;;;;6.80;5.13;;;;;;;;;;4935282;29;21019;-83
2023/04/20 06:39:10;;;;;;;6.70;5.60;;;;;;;;;;4936624;29;20451;-84
2023/04/20 06:41:38;;;;;;;5.70;4.83;;;;;;;;;;4936181;29;20975;-82
2023/04/20 06:44:05;;;;;;;6.40;5.80;;;;;;;;;;4936070;29;20456;-82
2023/04/20 06:46:32;;;;;;;6.43;5.73;;;;;;;;;;4936383;29;20452;-83
2023/04/20 06:48:59;;;;;;;8.30;5.50;;;;;;;;;;4936245;29;20460;-82
2023/04/20 06:51:28;;;;;;;6.30;5.57;;;;;;;;;;4934962;29;20467;-84
2023/04/20 06:53:55;;;;;;;6.83;5.40;;;;;;;;;;4936062;29;20944;-82
2023/04/20 06:56:22;;;;;;;7.00;5.70;;;;;;;;;;4935727;29;20456;-82
2023/04/20 06:58:49;;;;;;;7.33;5.70;;;;;;;;;;4935682;29;20456;-82
2023/04/20 07:01:16;;;;;;;5.60;5.03;;;;;;;;;;4932821;29;20810;-83
2023/04/20 07:03:45;;;;;;;8.33;6.17;;;;;;;;;;4935147;29;20502;-82
2023/04/20 07:06:12;;;;;;;7.00;6.30;;;;;;;;;;4934629;29;20462;-82
2023/04/20 07:08:40;;;;;;;8.27;7.20;;;;;;;;;;4935771;29;20455;-83
2023/04/20 07:11:08;;;;;;;7.60;6.00;;;;;;;;;;4935976;29;20452;-84
2023/04/20 07:13:35;;;;;;;6.47;5.70;;;;;;;;;;4935726;29;20458;-85
2023/04/20 07:16:02;;;;;;;9.50;7.20;;;;;;;;;;4935715;29;20456;-83
2023/04/20 07:18:30;;;;;;;7.80;6.77;;;;;;;;;;4935784;29;20857;-82
2023/04/20 07:20:57;;;;;;;6.60;5.90;;;;;;;;;;4934804;29;20451;-85
2023/04/20 07:23:24;;;;;;;8.07;6.10;;;;;;;;;;4936104;29;20694;-84
2023/04/20 07:25:53;;;;;;;6.73;5.50;;;;;;;;;;4935879;29;20543;-84
2023/04/20 07:28:20;;;;;;;7.23;5.87;;;;;;;;;;4936103;29;20787;-84
2023/04/20 07:30:47;;;;;;;9.13;6.33;;;;;;;;;;4935592;29;20463;-82
2023/04/20 07:33:14;;;;;;;6.03;5.43;;;;;;;;;;4935970;29;20456;-85
2023/04/20 07:35:41;;;;;;;7.30;5.57;;;;;;;;;;4935247;29;20459;-85
2023/04/20 07:38:08;;;;;;;13.53;5.90;;;;;;;;;;4935701;29;20540;-94
2023/04/20 07:40:35;;;;;;;7.63;6.13;;;;;;;;;;4936289;29;20528;-92
2023/04/20 07:43:04;;;;;;;7.53;5.80;;;;;;;;;;4935896;29;20499;-82
2023/04/20 07:45:31;;;;;;;8.30;6.80;;;;;;;;;;4935701;29;20487;-86
2023/04/20 07:48:00;;;;;;;7.30;5.73;;;;;;;;;;4935572;29;20459;-86
2023/04/20 07:50:27;;;;;;;17.30;6.43;;;;;;;;;;4934578;29;20458;-84
2023/04/20 07:52:54;;;;;;;12.67;6.30;;;;;;;;;;4935599;29;20448;-88
2023/04/20 07:55:21;;;;;;;7.00;6.30;;;;;;;;;;4935788;29;20452;-85
2023/04/20 07:57:49;;;;;;;5.30;4.50;;;;;;;;;;4935548;29;20448;-87
2023/04/20 08:00:18;;;;;;;7.10;6.10;;;8.90;94.70;;;;;;4935498;29;20467;-84
2023/04/20 08:02:45;;;;;;;9.30;6.40;;;;;;;;;;4935415;29;20507;-85
2023/04/20 08:05:13;;;;;;;9.10;6.80;;;;;;;;;;4934442;29;20475;-79
2023/04/20 08:07:40;;;;;;;9.37;6.67;;;;;;;;;;4935199;29;20460;-85
2023/04/20 08:10:07;;;;;;;8.73;6.20;;;;;;;;;;4935513;29;20463;-86
2023/04/20 08:12:34;;;;;;;6.13;5.40;;;;;;;;;;4935636;29;20448;-84
2023/04/20 08:15:05;;;;;;;7.80;6.87;;;;;;;;;;4938547;29;20454;-86
2023/04/20 08:17:33;;;;;;;7.90;6.60;;;;;;;;;;4936791;29;20503;-85
2023/04/20 08:20:00;;;;;;;10.03;6.30;;;;;;;;;;4938681;29;20471;-83
2023/04/20 08:22:28;;;;;;;6.63;5.93;;;;;;;;;;4938153;29;20860;-86
2023/04/20 08:24:55;;;;;;;11.07;6.47;;;;;;;;;;4939006;29;20551;-87
2023/04/20 08:27:23;;;;;;;10.80;7.00;;;;;;;;;;4939103;29;20467;-83
2023/04/20 08:29:50;;;;;;;20.93;16.73;;;;;;;;;;4938762;29;20503;-86
2023/04/20 08:32:17;;;;;;;8.93;6.00;;;;;;;;;;4950424;28;20443;-80
2023/04/20 08:34:45;;;;;;;13.03;9.40;;;6.70;99.90;;;;;;4953324;28;20558;-79
2023/04/20 08:37:12;;;;;;;10.60;6.07;;;;;;;;;;4938447;29;20460;-86
2023/04/20 08:39:40;;;;;;;16.47;14.10;;;;;;;;;;4938569;29;20452;-84
2023/04/20 08:42:07;;;;;;;9.33;6.43;;;;;;;;;;4938470;29;20487;-81
2023/04/20 08:44:34;;;;;;;8.67;6.70;;;;;;;;;;4938397;29;20453;-82
2023/04/20 08:47:01;;;;;;;9.93;7.30;;;;;;;;;;4938109;29;20856;-84
2023/04/20 08:49:29;;;;;;;7.80;6.43;;;6.40;99.90;;;;;;4938381;29;20452;-83
2023/04/20 08:51:57;;;;;;;10.43;7.27;;;6.40;99.90;;;;;;4937523;29;20467;-83
2023/04/20 08:54:24;;;;;;;15.20;8.80;;;;;;;;;;4938590;29;20456;-83
2023/04/20 08:56:51;;;;;;;8.77;7.13;;;;;;;;;;4938284;29;20452;-85
2023/04/20 08:59:18;;;;;;;8.30;7.40;;;;;;;;;;4937952;29;20452;-82
2023/04/20 09:01:46;;;;;;;10.07;7.70;;;;;;;;;;4938021;29;20463;-82
2023/04/20 09:04:17;;;;;;;8.57;5.50;;;6.20;99.90;;;;;;4937960;29;20500;-83
2023/04/20 09:06:44;;;;;;;14.40;12.80;;;;;;;;;;4937143;29;20466;-82
2023/04/20 09:09:13;;;;;;;10.40;7.60;;;;;;;;;;4938404;29;20455;-84
2023/04/20 09:11:40;;;;;;;10.60;7.33;;;;;;;;;;4938445;29;20483;-82
2023/04/20 09:14:11;;;;;;;10.30;7.80;;;5.90;99.90;;;;;;4938092;29;20462;-83
2023/04/20 09:16:38;;;;;;;11.47;7.43;;;;;;;;;;4937457;29;20530;-85
2023/04/20 09:19:05;;;;;;;8.20;7.20;;;;;;;;;;4937807;29;20491;-82
2023/04/20 09:21:32;;;;;;;10.97;9.20;;;;;;;;;;4936490;29;20455;-82
2023/04/20 09:24:01;;;;;;;10.53;7.40;;;5.80;99.90;;;;;;4937601;29;20511;-85
2023/04/20 09:26:33;;;;;;;12.00;8.30;;;5.80;99.90;;;;;;4936106;29;20456;-83
2023/04/20 09:29:00;;;;;;;14.90;10.53;;;;;;;;;;4937193;29;20448;-84
2023/04/20 09:31:27;;;;;;;9.90;8.07;;;;;;;;;;4937487;29;20479;-83
2023/04/20 09:33:58;;;;;;;15.97;8.43;;;6.00;99.90;;;;;;4937400;29;20459;-84
2023/04/20 09:36:26;;;;;;;8.80;7.87;;;;;;;;;;4936708;29;20955;-84
2023/04/20 09:39:03;;;;;;;10.80;7.20;;;;;;;;;;4937378;29;20596;-85
2023/04/20 09:41:33;;;;;;;8.67;7.17;;;;;;;;;;4937695;29;20474;-85
2023/04/20 09:44:02;;;;;;;10.57;7.57;;;5.90;99.90;;;;;;4937415;29;20535;-84
2023/04/20 09:46:31;;;;;;;8.73;6.93;;;5.90;99.90;;;;;;4937182;29;20478;-85
2023/04/20 09:48:58;;;;;;;10.63;7.67;;;;;;;;;;4937165;29;20880;-84
2023/04/20 09:51:27;;;;;;;10.10;7.20;;;;;;;;;;4935860;29;20861;-86
2023/04/20 09:53:55;;;;;;;8.80;7.23;;;;;;;;;;4937036;29;20503;-85
2023/04/20 09:56:22;;;;;;;9.70;6.97;;;;;;;;;;4936922;29;20463;-85
2023/04/20 09:58:51;;;;;;;12.67;7.47;;;5.90;99.90;;;;;;4937043;29;20449;-84
2023/04/20 10:01:18;;;;;;;9.20;7.10;;;;;;;;;;4937041;29;20972;-86
2023/04/20 10:03:45;;;;;;;11.13;8.17;;;;;;;;;;4936649;29;20502;-85
2023/04/20 10:06:19;;;;;;;11.27;8.03;;;5.90;99.90;;;;;;4935423;29;20452;-88
2023/04/20 10:08:47;;;;;;;13.03;10.83;;;;;;;;;;4936849;29;20464;-85
2023/04/20 10:11:25;;;;;;;10.70;8.57;;;6.00;99.90;;;;;;4936982;29;20460;-83
2023/04/20 10:13:53;;;;;;;18.90;8.77;;;;;;;;;;4937438;29;20511;-83
2023/04/20 10:16:21;;;;;;;11.40;8.70;;;6.00;99.90;;;;;;4936746;29;20471;-87
2023/04/20 10:19:01;;;;;;;21.63;9.40;;;;;;;;;;4936852;29;20542;-86
2023/04/20 10:21:29;;;;;;;10.63;7.40;;;6.00;99.90;;;;;;4936809;29;20455;-85
2023/04/20 10:23:57;;;;;;;11.67;8.90;;;;;;;;;;4936952;29;20505;-86
2023/04/20 10:26:24;;;;;;;10.00;7.93;;;;;;;;;;4936018;29;20460;-84
2023/04/20 10:28:53;;;;;;;11.33;8.27;;;;;;;;;;4936602;29;20463;-85
2023/04/20 10:31:20;;;;;;;11.63;7.07;;;;;;;;;;4936468;29;20818;-87
2023/04/20 10:33:54;;;;;;;8.47;7.50;;;6.10;99.90;;;;;;4937305;29;20495;-86
2023/04/20 10:36:26;;;;;;;11.10;8.50;;;;;;;;;;4935514;29;20479;-87
2023/04/20 10:38:53;;;;;;;11.20;8.43;;;;;;;;;;4933640;29;20822;-86
2023/04/20 10:41:21;;;;;;;9.10;6.93;;;;;;;;;;4936398;29;20966;-85
2023/04/20 10:43:48;;;;;;;11.90;9.73;;;;;;;;;;4936989;29;21029;-84
2023/04/20 10:46:18;;;;;;;12.63;7.60;;;6.30;99.90;;;;;;4936030;29;20440;-86
2023/04/20 10:48:52;;;;;;;10.63;6.77;;;6.30;99.90;;;;;;4937145;29;20443;-84
2023/04/20 10:51:20;;;;;;;9.97;7.17;;;;;;;;;;4932439;29;20455;-87
2023/04/20 10:53:47;;;;;;;11.73;7.23;;;;;;;;;;4936039;29;20452;-89
2023/04/20 10:56:14;;;;;;;9.37;8.30;;;;;;;;;;4936382;29;20505;-78
2023/04/20 10:58:42;;;;;;;8.10;6.10;;;;;;;;;;4936512;28;21006;-81
2023/04/20 11:01:09;;;;;;;11.30;7.90;;;;;;;;;;4938658;29;20466;-79
2023/04/20 11:03:37;;;;;;;8.23;7.13;;;6.60;99.90;;;;;;4937957;29;20476;-88
2023/04/20 11:06:04;;;;;;;9.03;7.57;;;;;;;;;;4958922;23;20487;-88
2023/04/20 11:08:38;;;;;;;7.07;5.97;;;;;;;;;;4955080;28;20827;-87
2023/04/20 11:11:06;;;;;;;6.80;5.70;;;;;;;;;;4955273;28;20458;-83
2023/04/20 11:13:33;;;;;;;9.03;7.10;;;;;;;;;;4954921;28;20454;-82
2023/04/20 11:16:01;;;;;;;8.83;6.63;;;;;;;;;;4954572;28;21037;-81
2023/04/20 11:18:29;;;;;;;8.97;6.10;;;;;;;;;;4954900;28;20455;-80
2023/04/20 11:20:58;;;;;;;11.17;6.70;;;;;;;;;;4953739;28;20487;-80
2023/04/20 11:23:26;;;;;;;8.50;6.70;;;;;;;;;;4954728;28;21157;-87
2023/04/20 11:25:53;;;;;;;7.37;5.87;;;;;;;;;;4955157;28;20454;-80
2023/04/20 11:28:20;;;;;;;7.63;6.10;;;;;;;;;;4954564;28;20458;-84
2023/04/20 11:30:48;;;;;;;7.00;6.30;;;;;;;;;;4954190;29;20479;-82
2023/04/20 11:33:16;;;;;;;9.40;5.93;;;;;;;;;;4954305;29;20489;-79
2023/04/20 11:35:43;;;;;;;7.50;6.27;;;6.30;99.90;;;;;;4953281;28;20522;-83
2023/04/20 11:38:11;;;;;;;9.00;6.67;;;;;;;;;;4954517;28;20872;-79
2023/04/20 11:40:38;;;;;;;9.53;7.40;;;;;;;;;;4954462;28;20451;-83
2023/04/20 11:43:06;;;;;;;11.70;8.33;;;;;;;;;;4954717;28;20849;-80
2023/04/20 11:45:33;;;;;;;7.80;6.73;;;;;;;;;;4954256;28;20454;-80
2023/04/20 11:48:01;;;;;;;8.73;6.77;;;;;;;;;;4954652;28;20966;-80
2023/04/20 11:50:28;;;;;;;10.23;7.90;;;;;;;;;;4956782;28;20451;-83
2023/04/20 11:52:55;;;;;;;7.40;6.10;;;;;;;;;;4957779;28;20454;-84
2023/04/20 11:55:23;;;;;;;9.47;6.80;;;;;;;;;;4958010;29;20461;-82
2023/04/20 11:57:50;;;;;;;8.80;6.20;;;;;;;;;;4957918;29;20466;-81
2023/04/20 12:00:18;;;;;;;7.00;5.70;;;;;;;;;;4958414;29;20462;-82
2023/04/20 12:02:45;;;;;;;10.00;7.23;;;;;;;;;;4957748;29;20451;-80
2023/04/20 12:05:12;;;;;;;15.93;10.93;;;;;;;;;;4956423;29;20529;-84
2023/04/20 12:07:40;;;;;;;14.73;9.67;;;;;;;;;;4957807;28;20455;-80
2023/04/20 12:10:08;;;;;;;12.40;8.40;;;;;;;;;;4957898;29;20493;-81
2023/04/20 12:12:38;;;;;;;13.63;9.27;;;;;;;;;;4957405;29;20455;-86
2023/04/20 12:15:06;;;;;;;11.07;8.63;;;6.60;99.90;;;;;;4957903;28;20820;-83
2023/04/20 12:17:33;;;;;;;8.77;6.63;;;;;;;;;;4939853;29;20939;-80
2023/04/20 12:20:01;;;;;;;10.37;7.00;;;;;;;;;;4957870;29;20451;-84
2023/04/20 12:22:28;;;;;;;11.00;7.77;;;;;;;;;;4952899;29;20951;-85
2023/04/20 12:24:55;;;;;;;8.30;7.30;;;;;;;;;;4957846;29;20506;-84
2023/04/20 12:27:24;;;;;;;13.53;8.93;;;;;;;;;;4957683;29;20501;-86
2023/04/20 12:29:52;;;;;;;8.43;7.30;;;;;;;;;;4958070;29;20492;-86
2023/04/20 12:32:19;;;;;;;15.13;8.33;;;;;;;;;;4958237;29;20850;-86
2023/04/20 12:34:47;;;;;;;10.93;7.97;;;;;;;;;;4958393;29;20493;-84
2023/04/20 12:37:14;;;;;;;12.70;8.53;;;;;;;;;;4957461;29;20542;-86
2023/04/20 12:39:41;;;;;;;9.70;7.97;;;;;;;;;;4958606;29;20493;-87
2023/04/20 12:42:09;;;;;;;14.20;9.23;;;;;;;;;;4958253;29;20454;-86
2023/04/20 12:44:36;;;;;;;12.20;9.10;;;;;;;;;;4957805;29;20491;-88
2023/04/20 12:47:05;;;;;;;15.60;12.30;;;;;;;;;;4957876;29;20463;-91
2023/04/20 12:49:32;;;;;;;12.63;10.33;;;;;;;;;;4958161;28;20454;-88
2023/04/20 12:51:59;;;;;;;12.73;10.60;;;;;;;;;;4957288;28;20451;-90
2023/04/20 12:54:26;;;;;;;14.47;10.33;;;;;;;;;;4958012;28;20467;-87
2023/04/20 12:56:53;;;;;;;10.43;9.33;;;;;;;;;;4958460;28;20471;-89
2023/04/20 12:59:20;;;;;;;10.60;8.43;;;;;;;;;;4957793;28;20462;-89
2023/04/20 13:01:47;;;;;;;11.93;9.73;;;;;;;;;;4958259;29;20459;-88
2023/04/20 13:04:15;;;;;;;9.80;8.50;;;;;;;;;;4957654;29;20955;-88
2023/04/20 13:06:43;;;;;;;10.40;6.97;;;;;;;;;;4956017;29;20486;-87
2023/04/20 13:09:10;;;;;;;10.03;7.87;;;;;;;;;;4957667;29;20461;-89
2023/04/20 13:11:37;;;;;;;11.93;8.53;;;;;;;;;;4957965;29;20530;-89
2023/04/20 13:14:05;;;;;;;13.20;8.37;;;;;;;;;;4957879;29;20509;-87
2023/04/20 13:16:32;;;;;;;9.30;6.73;;;;;;;;;;4957650;28;20490;-88
2023/04/20 13:18:59;;;;;;;8.20;6.93;;;;;;;;;;4958670;28;20828;-90
2023/04/20 13:21:27;;;;;;;9.60;7.47;;;;;;;;;;4956459;28;20451;-81
2023/04/20 13:23:54;;;;;;;15.33;11.53;;;;;;;;;;4956573;28;20491;-87
2023/04/20 13:26:22;;;;;;;10.43;8.47;;;;;;;;;;4958433;28;20465;-88
2023/04/20 13:28:49;;;;;;;23.00;19.23;;;;;;;;;;4958239;29;20451;-90
2023/04/20 13:31:16;;;;;;;11.57;9.17;;;;;;;;;;4958199;28;21005;-88
2023/04/20 13:33:43;;;;;;;9.23;7.83;;;;;;;;;;4958838;28;20462;-89
2023/04/20 13:36:10;;;;;;;8.20;6.63;;;;;;;;;;4957109;28;20502;-87
2023/04/20 13:38:39;;;;;;;10.30;7.60;;;;;;;;;;4957094;28;20451;-89
2023/04/20 13:41:06;;;;;;;9.97;7.60;;;;;;;;;;4957414;28;20542;-91
2023/04/20 13:43:33;;;;;;;9.33;7.93;;;;;;;;;;4957990;28;20448;-89
2023/04/20 13:46:00;;;;;;;10.83;6.73;;;;;;;;;;4957418;28;20455;-88
2023/04/20 13:48:27;;;;;;;12.53;6.70;;;;;;;;;;4957748;28;20455;-85
2023/04/20 13:50:54;;;;;;;6.60;5.70;;;;;;;;;;4956277;28;20823;-84
2023/04/20 13:53:21;;;;;;;17.10;11.87;;;;;;;;;;4957035;28;20458;-87
2023/04/20 13:55:50;;;;;;;13.27;10.20;;;;;;;;;;4956388;28;20451;-85
2023/04/20 13:58:17;;;;;;;8.97;5.60;;;;;;;;;;4956990;28;20462;-89
2023/04/20 14:00:45;;;;;;;13.27;10.63;;;;;;;;;;4960005;28;20450;-88
2023/04/20 14:03:12;;;;;;;8.57;6.33;;;;;;;;;;4956409;28;20486;-87
2023/04/20 14:05:39;;;;;;;53.60;33.40;;;;;;;;;;4954972;28;20498;-86
2023/04/20 14:08:07;;;;;;;10.77;7.77;;;;;;;;;;4956319;28;20455;-85
2023/04/20 14:10:34;;;;;;;10.07;7.57;;;;;;;;;;4959689;28;20943;-84
2023/04/20 14:13:02;;;;;;;10.13;7.93;;;;;;;;;;4956467;28;20939;-84
2023/04/20 14:15:29;;;;;;;6.67;5.97;;;;;;;;;;4956893;28;21025;-85
2023/04/20 14:17:56;;;;;;;9.60;7.60;;;;;;;;;;4956884;28;20451;-82
2023/04/20 14:20:24;;;;;;;7.00;6.30;;;;;;;;;;4955578;28;20480;-86
2023/04/20 14:22:51;;;;;;;12.20;10.90;;;;;;;;;;4956788;28;20443;-87
2023/04/20 14:25:18;;;;;;;12.30;10.33;;;;;;;;;;4956416;28;20490;-86
2023/04/20 14:27:46;;;;;;;6.57;5.97;;;;;;;;;;4956633;28;20466;-89